AFL1316 UUEE-ULMM
Flight info
| Callsign | AFL1316 |
|---|---|
| Flight time | 2h 5m |
| Altitude | 36000 |
| Route | RILPO3H RILPO DCT GIMDA/K0845F350 N156 UPEMA T825 ADLIN/K0848F360 T747 MOVIT DCT PILAN T693 ASGOR ASGOR2L |
| Aircraft | A320/M-SDE3FGHIRWY/LB1 |
Departure
| Time | 2026-04-24 10:26 |
|---|---|
| Airport | Sheremetyevo International Airport (UUEE) |
Arrival
| Time | 2026-04-24 12:31 |
|---|---|
| Airport | Emperor Nicholas II Murmansk Airport (ULMM) |
| Time | Latitude | Longitude | Altitude | Speed | Heading |
|---|---|---|---|---|---|
| 2026-04-24 10:00 | 55.97798 | 37.41813 | 639 ft | 0 kts | 345° |
| 2026-04-24 10:20 | 55.97782 | 37.41821 | 644 ft | 4 kts | 344° |
| 2026-04-24 10:20 | 55.97756 | 37.41833 | 639 ft | 4 kts | 347° |
| 2026-04-24 10:21 | 55.97731 | 37.41838 | 639 ft | 4 kts | 22° |
| 2026-04-24 10:21 | 55.97721 | 37.41826 | 639 ft | 0 kts | 75° |
| 2026-04-24 10:23 | 55.97726 | 37.41854 | 639 ft | 10 kts | 74° |
| 2026-04-24 10:23 | 55.97755 | 37.42053 | 646 ft | 20 kts | 76° |
| 2026-04-24 10:23 | 55.97788 | 37.42295 | 645 ft | 17 kts | 88° |
| 2026-04-24 10:23 | 55.97731 | 37.42446 | 645 ft | 14 kts | 100° |
| 2026-04-24 10:24 | 55.97751 | 37.42622 | 639 ft | 19 kts | 75° |
| 2026-04-24 10:24 | 55.97739 | 37.42787 | 640 ft | 13 kts | 140° |
| 2026-04-24 10:24 | 55.97726 | 37.42797 | 639 ft | 1 kts | 161° |
| 2026-04-24 10:24 | 55.97677 | 37.42821 | 639 ft | 16 kts | 167° |
| 2026-04-24 10:25 | 55.97593 | 37.42751 | 639 ft | 0 kts | 253° |
| 2026-04-24 10:25 | 55.97590 | 37.42735 | 640 ft | 14 kts | 253° |
| 2026-04-24 10:25 | 55.97497 | 37.42101 | 641 ft | 88 kts | 255° |
| 2026-04-24 10:25 | 55.97285 | 37.40707 | 642 ft | 142 kts | 255° |
| 2026-04-24 10:26 | 55.97003 | 37.38844 | 1013 ft | 156 kts | 260° |
| 2026-04-24 10:26 | 55.96710 | 37.36976 | 1687 ft | 156 kts | 259° |
| 2026-04-24 10:26 | 55.96409 | 37.35062 | 2141 ft | 168 kts | 259° |
| 2026-04-24 10:26 | 55.96089 | 37.32912 | 2390 ft | 190 kts | 265° |
| 2026-04-24 10:27 | 55.96233 | 37.30535 | 2600 ft | 202 kts | 300° |
| 2026-04-24 10:27 | 55.97236 | 37.28719 | 2854 ft | 218 kts | 338° |
| 2026-04-24 10:27 | 55.98788 | 37.28433 | 3280 ft | 236 kts | 7° |
| 2026-04-24 10:27 | 56.00432 | 37.28892 | 4046 ft | 241 kts | 9° |
| 2026-04-24 10:28 | 56.02074 | 37.29412 | 4864 ft | 245 kts | 9° |
| 2026-04-24 10:28 | 56.03789 | 37.29965 | 5698 ft | 249 kts | 9° |
| 2026-04-24 10:28 | 56.05478 | 37.30505 | 6501 ft | 252 kts | 9° |
| 2026-04-24 10:28 | 56.07208 | 37.31054 | 7288 ft | 255 kts | 9° |
| 2026-04-24 10:29 | 56.08965 | 37.31610 | 8049 ft | 258 kts | 9° |
| 2026-04-24 10:29 | 56.10746 | 37.32166 | 8779 ft | 262 kts | 9° |
| 2026-04-24 10:29 | 56.12556 | 37.32726 | 9511 ft | 266 kts | 9° |
| 2026-04-24 10:29 | 56.14373 | 37.33467 | 10193 ft | 272 kts | 19° |
| 2026-04-24 10:30 | 56.16057 | 37.35071 | 10811 ft | 279 kts | 36° |
| 2026-04-24 10:30 | 56.17450 | 37.37536 | 11425 ft | 287 kts | 52° |
| 2026-04-24 10:30 | 56.18641 | 37.40579 | 11677 ft | 307 kts | 55° |
| 2026-04-24 10:30 | 56.19861 | 37.43794 | 12215 ft | 315 kts | 55° |
| 2026-04-24 10:31 | 56.21095 | 37.47075 | 12836 ft | 320 kts | 56° |
| 2026-04-24 10:31 | 56.22346 | 37.50404 | 13472 ft | 323 kts | 56° |
| 2026-04-24 10:31 | 56.23605 | 37.53751 | 14141 ft | 324 kts | 56° |
| 2026-04-24 10:31 | 56.24878 | 37.57106 | 14784 ft | 326 kts | 56° |
| 2026-04-24 10:32 | 56.26163 | 37.60480 | 15372 ft | 329 kts | 57° |
| 2026-04-24 10:32 | 56.27464 | 37.63907 | 15876 ft | 334 kts | 58° |
| 2026-04-24 10:32 | 56.28768 | 37.67347 | 16319 ft | 341 kts | 58° |
| 2026-04-24 10:32 | 56.30127 | 37.70900 | 16557 ft | 347 kts | 56° |
| 2026-04-24 10:33 | 56.31680 | 37.74278 | 16902 ft | 352 kts | 52° |
| 2026-04-24 10:33 | 56.33262 | 37.77655 | 17422 ft | 355 kts | 52° |
| 2026-04-24 10:33 | 56.34855 | 37.81080 | 17555 ft | 357 kts | 53° |
| 2026-04-24 10:33 | 56.36451 | 37.84502 | 17579 ft | 357 kts | 50° |
| 2026-04-24 10:34 | 56.38300 | 37.87509 | 17580 ft | 360 kts | 37° |
| 2026-04-24 10:34 | 56.40495 | 37.89718 | 17580 ft | 364 kts | 24° |
| 2026-04-24 10:34 | 56.42985 | 37.91028 | 17683 ft | 382 kts | 9° |
| 2026-04-24 10:34 | 56.45667 | 37.91482 | 18002 ft | 391 kts | 4° |
| 2026-04-24 10:35 | 56.48393 | 37.91844 | 18482 ft | 395 kts | 4° |
| 2026-04-24 10:35 | 56.51144 | 37.92221 | 18968 ft | 398 kts | 5° |
| 2026-04-24 10:35 | 56.53916 | 37.92606 | 19446 ft | 401 kts | 5° |
| 2026-04-24 10:35 | 56.56707 | 37.92992 | 19915 ft | 404 kts | 4° |
| 2026-04-24 10:36 | 56.59516 | 37.93374 | 20379 ft | 406 kts | 4° |
| 2026-04-24 10:36 | 56.62302 | 37.93752 | 20830 ft | 408 kts | 4° |
| 2026-04-24 10:36 | 56.65130 | 37.94333 | 21257 ft | 411 kts | 12° |
| 2026-04-24 10:36 | 56.67876 | 37.95766 | 21676 ft | 412 kts | 22° |
| 2026-04-24 10:37 | 56.70451 | 37.98068 | 22091 ft | 413 kts | 33° |
| 2026-04-24 10:37 | 56.72769 | 38.01151 | 22487 ft | 413 kts | 43° |
| 2026-04-24 10:37 | 56.74843 | 38.04792 | 22851 ft | 416 kts | 47° |
| 2026-04-24 10:37 | 56.76919 | 38.08517 | 23155 ft | 421 kts | 46° |
| 2026-04-24 10:38 | 56.79014 | 38.12282 | 23508 ft | 424 kts | 46° |
| 2026-04-24 10:38 | 56.81120 | 38.16066 | 23875 ft | 426 kts | 46° |
| 2026-04-24 10:38 | 56.83326 | 38.19715 | 24216 ft | 431 kts | 38° |
| 2026-04-24 10:38 | 56.85856 | 38.22665 | 24589 ft | 434 kts | 27° |
| 2026-04-24 10:39 | 56.88643 | 38.24772 | 24961 ft | 435 kts | 17° |
| 2026-04-24 10:39 | 56.91602 | 38.25948 | 25317 ft | 436 kts | 6° |
| 2026-04-24 10:39 | 56.94629 | 38.26139 | 25682 ft | 436 kts | 355° |
| 2026-04-24 10:39 | 56.97653 | 38.25760 | 26051 ft | 436 kts | 355° |
| 2026-04-24 10:40 | 57.00681 | 38.25369 | 26410 ft | 436 kts | 355° |
| 2026-04-24 10:40 | 57.03710 | 38.24978 | 26765 ft | 437 kts | 355° |
| 2026-04-24 10:40 | 57.06748 | 38.24595 | 27103 ft | 438 kts | 355° |
| 2026-04-24 10:40 | 57.09796 | 38.24217 | 27448 ft | 439 kts | 355° |
| 2026-04-24 10:41 | 57.12805 | 38.23841 | 27788 ft | 440 kts | 355° |
| 2026-04-24 10:41 | 57.15860 | 38.23458 | 28123 ft | 441 kts | 355° |
| 2026-04-24 10:41 | 57.18922 | 38.23076 | 28439 ft | 441 kts | 355° |
| 2026-04-24 10:41 | 57.21984 | 38.22687 | 28725 ft | 442 kts | 355° |
| 2026-04-24 10:42 | 57.25054 | 38.22294 | 28999 ft | 443 kts | 355° |
| 2026-04-24 10:42 | 57.28133 | 38.21900 | 29278 ft | 444 kts | 355° |
| 2026-04-24 10:42 | 57.31215 | 38.21507 | 29546 ft | 444 kts | 355° |
| 2026-04-24 10:42 | 57.34306 | 38.21114 | 29798 ft | 446 kts | 356° |
| 2026-04-24 10:43 | 57.37402 | 38.20718 | 30040 ft | 447 kts | 356° |
| 2026-04-24 10:43 | 57.40508 | 38.20320 | 30299 ft | 448 kts | 356° |
| 2026-04-24 10:43 | 57.43611 | 38.19923 | 30609 ft | 447 kts | 356° |
| 2026-04-24 10:43 | 57.46710 | 38.19529 | 30939 ft | 446 kts | 356° |
| 2026-04-24 10:44 | 57.49800 | 38.19130 | 31252 ft | 445 kts | 356° |
| 2026-04-24 10:44 | 57.51842 | 38.18864 | 31459 ft | 444 kts | 356° |
| 2026-04-24 10:44 | 57.54922 | 38.18464 | 31754 ft | 444 kts | 356° |
| 2026-04-24 10:44 | 57.58000 | 38.18063 | 32046 ft | 443 kts | 356° |
| 2026-04-24 10:45 | 57.61075 | 38.17663 | 32329 ft | 443 kts | 356° |
| 2026-04-24 10:45 | 57.64146 | 38.17269 | 32619 ft | 442 kts | 356° |
| 2026-04-24 10:45 | 57.67208 | 38.16876 | 32913 ft | 441 kts | 356° |
| 2026-04-24 10:45 | 57.70269 | 38.16479 | 33177 ft | 441 kts | 356° |
| 2026-04-24 10:46 | 57.74320 | 38.15950 | 33534 ft | 440 kts | 356° |
| 2026-04-24 10:46 | 57.76384 | 38.15677 | 33707 ft | 440 kts | 356° |
| 2026-04-24 10:46 | 57.79439 | 38.15274 | 33979 ft | 440 kts | 356° |
| 2026-04-24 10:46 | 57.82491 | 38.14872 | 34250 ft | 439 kts | 356° |
| 2026-04-24 10:47 | 57.85539 | 38.14471 | 34487 ft | 439 kts | 356° |
| 2026-04-24 10:47 | 57.91574 | 38.13766 | 34561 ft | 435 kts | 0° |
| 2026-04-24 10:48 | 57.97604 | 38.14631 | 34560 ft | 435 kts | 5° |
| 2026-04-24 10:48 | 58.03628 | 38.15651 | 34560 ft | 435 kts | 5° |
| 2026-04-24 10:49 | 58.09653 | 38.16665 | 34561 ft | 435 kts | 5° |
| 2026-04-24 10:49 | 58.15674 | 38.17664 | 34560 ft | 434 kts | 4° |
| 2026-04-24 10:50 | 58.21695 | 38.18675 | 34559 ft | 434 kts | 5° |
| 2026-04-24 10:50 | 58.27719 | 38.19694 | 34558 ft | 435 kts | 5° |
| 2026-04-24 10:51 | 58.33748 | 38.20723 | 34556 ft | 435 kts | 5° |
| 2026-04-24 10:51 | 58.39739 | 38.21731 | 34557 ft | 435 kts | 4° |
| 2026-04-24 10:52 | 58.45780 | 38.22746 | 34557 ft | 436 kts | 4° |
| 2026-04-24 10:52 | 58.51816 | 38.23781 | 34559 ft | 436 kts | 4° |
| 2026-04-24 10:53 | 58.57855 | 38.24825 | 34558 ft | 436 kts | 4° |
| 2026-04-24 10:53 | 58.63898 | 38.25865 | 34557 ft | 436 kts | 4° |
| 2026-04-24 10:54 | 58.69945 | 38.26356 | 34554 ft | 435 kts | 354° |
| 2026-04-24 10:54 | 58.75888 | 38.24143 | 34553 ft | 435 kts | 347° |
| 2026-04-24 10:55 | 58.81811 | 38.21630 | 34551 ft | 436 kts | 347° |
| 2026-04-24 10:55 | 58.87735 | 38.19118 | 34555 ft | 436 kts | 347° |
| 2026-04-24 10:56 | 58.93655 | 38.16601 | 34560 ft | 436 kts | 347° |
| 2026-04-24 10:56 | 58.99570 | 38.14076 | 34557 ft | 435 kts | 347° |
| 2026-04-24 10:57 | 59.05482 | 38.11539 | 34557 ft | 435 kts | 347° |
| 2026-04-24 10:57 | 59.11397 | 38.08993 | 34559 ft | 436 kts | 347° |
| 2026-04-24 10:58 | 59.17275 | 38.06460 | 34562 ft | 435 kts | 347° |
| 2026-04-24 10:58 | 59.23188 | 38.03911 | 34564 ft | 435 kts | 347° |
| 2026-04-24 10:59 | 59.29173 | 38.02339 | 34569 ft | 436 kts | 1° |
| 2026-04-24 10:59 | 59.35214 | 38.03381 | 34568 ft | 436 kts | 4° |
| 2026-04-24 11:00 | 59.41252 | 38.04549 | 34566 ft | 436 kts | 4° |
| 2026-04-24 11:00 | 59.47286 | 38.05712 | 34574 ft | 436 kts | 4° |
| 2026-04-24 11:01 | 59.53321 | 38.06870 | 34568 ft | 436 kts | 4° |
| 2026-04-24 11:01 | 59.59310 | 38.08026 | 34574 ft | 435 kts | 4° |
| 2026-04-24 11:02 | 59.65333 | 38.09208 | 34565 ft | 435 kts | 4° |
| 2026-04-24 11:02 | 59.71359 | 38.10400 | 34570 ft | 435 kts | 4° |
| 2026-04-24 11:03 | 59.77382 | 38.11587 | 34566 ft | 435 kts | 4° |
| 2026-04-24 11:03 | 59.83402 | 38.12773 | 34575 ft | 435 kts | 4° |
| 2026-04-24 11:04 | 59.89418 | 38.13962 | 34572 ft | 434 kts | 4° |
| 2026-04-24 11:04 | 59.95433 | 38.15145 | 34566 ft | 434 kts | 4° |
| 2026-04-24 11:05 | 60.01404 | 38.16335 | 34576 ft | 435 kts | 4° |
| 2026-04-24 11:05 | 60.07426 | 38.17548 | 34570 ft | 435 kts | 4° |
| 2026-04-24 11:06 | 60.13450 | 38.18757 | 34571 ft | 435 kts | 4° |
| 2026-04-24 11:06 | 60.19475 | 38.19965 | 34572 ft | 435 kts | 4° |
| 2026-04-24 11:07 | 60.28501 | 38.21799 | 34565 ft | 435 kts | 4° |
| 2026-04-24 11:07 | 60.34516 | 38.23030 | 34564 ft | 434 kts | 4° |
| 2026-04-24 11:08 | 60.40534 | 38.24254 | 34564 ft | 435 kts | 4° |
| 2026-04-24 11:08 | 60.46554 | 38.25479 | 34561 ft | 435 kts | 4° |
| 2026-04-24 11:09 | 60.52582 | 38.26705 | 34564 ft | 436 kts | 4° |
| 2026-04-24 11:09 | 60.58618 | 38.27944 | 34567 ft | 436 kts | 4° |
| 2026-04-24 11:10 | 60.64664 | 38.29182 | 34570 ft | 437 kts | 4° |
| 2026-04-24 11:10 | 60.70710 | 38.30435 | 34565 ft | 436 kts | 4° |
| 2026-04-24 11:11 | 60.76759 | 38.31698 | 34565 ft | 437 kts | 4° |
| 2026-04-24 11:11 | 60.82771 | 38.32963 | 34562 ft | 437 kts | 4° |
| 2026-04-24 11:12 | 60.88823 | 38.34225 | 34563 ft | 438 kts | 4° |
| 2026-04-24 11:12 | 60.94883 | 38.35491 | 34558 ft | 438 kts | 4° |
| 2026-04-24 11:13 | 61.00939 | 38.36761 | 34554 ft | 438 kts | 4° |
| 2026-04-24 11:13 | 61.07001 | 38.38045 | 34553 ft | 438 kts | 4° |
| 2026-04-24 11:14 | 61.13065 | 38.39348 | 34553 ft | 438 kts | 4° |
| 2026-04-24 11:14 | 61.19160 | 38.40639 | 34772 ft | 442 kts | 4° |
| 2026-04-24 11:15 | 61.22223 | 38.41221 | 34972 ft | 442 kts | 0° |
| 2026-04-24 11:15 | 61.25242 | 38.40952 | 35179 ft | 440 kts | 351° |
| 2026-04-24 11:15 | 61.28233 | 38.39708 | 35368 ft | 439 kts | 346° |
| 2026-04-24 11:15 | 61.31216 | 38.38315 | 35530 ft | 439 kts | 346° |
| 2026-04-24 11:16 | 61.37186 | 38.35542 | 35570 ft | 439 kts | 347° |
| 2026-04-24 11:16 | 61.43158 | 38.32787 | 35570 ft | 439 kts | 346° |
| 2026-04-24 11:17 | 61.49114 | 38.30007 | 35570 ft | 438 kts | 346° |
| 2026-04-24 11:17 | 61.55065 | 38.27188 | 35571 ft | 438 kts | 346° |
| 2026-04-24 11:18 | 61.61017 | 38.24393 | 35570 ft | 439 kts | 346° |
| 2026-04-24 11:18 | 61.66933 | 38.21603 | 35569 ft | 439 kts | 346° |
| 2026-04-24 11:19 | 61.72889 | 38.18793 | 35571 ft | 439 kts | 346° |
| 2026-04-24 11:19 | 61.78846 | 38.15974 | 35575 ft | 439 kts | 346° |
| 2026-04-24 11:20 | 61.84797 | 38.13127 | 35574 ft | 438 kts | 346° |
| 2026-04-24 11:20 | 61.90748 | 38.10261 | 35575 ft | 438 kts | 346° |
| 2026-04-24 11:21 | 61.96697 | 38.07371 | 35575 ft | 439 kts | 346° |
| 2026-04-24 11:21 | 62.02644 | 38.04426 | 35573 ft | 439 kts | 346° |
| 2026-04-24 11:22 | 62.08544 | 38.01462 | 35571 ft | 438 kts | 346° |
| 2026-04-24 11:22 | 62.14479 | 37.98488 | 35575 ft | 438 kts | 346° |
| 2026-04-24 11:23 | 62.20417 | 37.95515 | 35580 ft | 438 kts | 346° |
| 2026-04-24 11:23 | 62.26353 | 37.92538 | 35585 ft | 438 kts | 346° |
| 2026-04-24 11:24 | 62.32291 | 37.89540 | 35585 ft | 438 kts | 346° |
| 2026-04-24 11:24 | 62.38225 | 37.86507 | 35584 ft | 438 kts | 346° |
| 2026-04-24 11:25 | 62.44159 | 37.83478 | 35581 ft | 438 kts | 346° |
| 2026-04-24 11:25 | 62.50086 | 37.80441 | 35577 ft | 437 kts | 346° |
| 2026-04-24 11:26 | 62.56004 | 37.77395 | 35573 ft | 437 kts | 346° |
| 2026-04-24 11:26 | 62.61916 | 37.74337 | 35569 ft | 437 kts | 346° |
| 2026-04-24 11:27 | 62.67805 | 37.71070 | 35568 ft | 436 kts | 343° |
| 2026-04-24 11:27 | 62.73607 | 37.67231 | 35563 ft | 436 kts | 342° |
| 2026-04-24 11:28 | 62.79387 | 37.63271 | 35564 ft | 435 kts | 342° |
| 2026-04-24 11:28 | 62.85140 | 37.59427 | 35562 ft | 435 kts | 342° |
| 2026-04-24 11:29 | 62.90948 | 37.55632 | 35558 ft | 436 kts | 342° |
| 2026-04-24 11:29 | 62.96752 | 37.51823 | 35559 ft | 435 kts | 342° |
| 2026-04-24 11:30 | 63.02548 | 37.47967 | 35557 ft | 435 kts | 342° |
| 2026-04-24 11:30 | 63.08338 | 37.44080 | 35557 ft | 435 kts | 342° |
| 2026-04-24 11:31 | 63.14133 | 37.40204 | 35558 ft | 435 kts | 342° |
| 2026-04-24 11:31 | 63.19925 | 37.36318 | 35556 ft | 435 kts | 342° |
| 2026-04-24 11:32 | 63.25714 | 37.32396 | 35555 ft | 435 kts | 342° |
| 2026-04-24 11:32 | 63.31488 | 37.28363 | 35553 ft | 435 kts | 341° |
| 2026-04-24 11:33 | 63.37248 | 37.24187 | 35552 ft | 435 kts | 341° |
| 2026-04-24 11:33 | 63.43003 | 37.19983 | 35553 ft | 435 kts | 341° |
| 2026-04-24 11:34 | 63.48722 | 37.15527 | 35553 ft | 435 kts | 340° |
| 2026-04-24 11:34 | 63.54422 | 37.10948 | 35553 ft | 435 kts | 340° |
| 2026-04-24 11:35 | 63.60125 | 37.06379 | 35549 ft | 435 kts | 340° |
| 2026-04-24 11:35 | 63.65828 | 37.01852 | 35546 ft | 434 kts | 340° |
| 2026-04-24 11:36 | 63.71527 | 36.97327 | 35545 ft | 434 kts | 340° |
| 2026-04-24 11:36 | 63.77181 | 36.92814 | 35542 ft | 434 kts | 340° |
| 2026-04-24 11:37 | 63.82860 | 36.88235 | 35541 ft | 433 kts | 340° |
| 2026-04-24 11:37 | 63.88534 | 36.83627 | 35543 ft | 433 kts | 340° |
| 2026-04-24 11:38 | 63.94207 | 36.79028 | 35543 ft | 433 kts | 340° |
| 2026-04-24 11:38 | 63.99874 | 36.74431 | 35545 ft | 432 kts | 340° |
| 2026-04-24 11:39 | 64.05537 | 36.69795 | 35542 ft | 432 kts | 340° |
| 2026-04-24 11:39 | 64.11197 | 36.65138 | 35542 ft | 433 kts | 340° |
| 2026-04-24 11:40 | 64.16855 | 36.60475 | 35541 ft | 432 kts | 340° |
| 2026-04-24 11:40 | 64.22510 | 36.55815 | 35539 ft | 431 kts | 340° |
| 2026-04-24 11:41 | 64.28156 | 36.51111 | 35540 ft | 431 kts | 340° |
| 2026-04-24 11:41 | 64.33798 | 36.46388 | 35539 ft | 431 kts | 340° |
| 2026-04-24 11:42 | 64.39444 | 36.41671 | 35536 ft | 431 kts | 340° |
| 2026-04-24 11:42 | 64.45086 | 36.36953 | 35537 ft | 431 kts | 340° |
| 2026-04-24 11:43 | 64.50686 | 36.32210 | 35538 ft | 432 kts | 339° |
| 2026-04-24 11:43 | 64.56328 | 36.27399 | 35537 ft | 433 kts | 339° |
| 2026-04-24 11:44 | 64.61984 | 36.22569 | 35540 ft | 433 kts | 339° |
| 2026-04-24 11:44 | 64.66545 | 36.17569 | 35539 ft | 432 kts | 333° |
| 2026-04-24 11:45 | 64.71898 | 36.11165 | 35537 ft | 432 kts | 333° |
| 2026-04-24 11:45 | 64.77247 | 36.04716 | 35536 ft | 432 kts | 333° |
| 2026-04-24 11:46 | 64.82591 | 35.98249 | 35532 ft | 432 kts | 333° |
| 2026-04-24 11:46 | 64.87884 | 35.91779 | 35536 ft | 431 kts | 332° |
| 2026-04-24 11:47 | 64.93193 | 35.85214 | 35536 ft | 431 kts | 332° |
| 2026-04-24 11:47 | 64.98503 | 35.78633 | 35535 ft | 431 kts | 332° |
| 2026-04-24 11:48 | 65.03803 | 35.71989 | 35534 ft | 431 kts | 330° |
| 2026-04-24 11:48 | 65.08912 | 35.64563 | 35533 ft | 431 kts | 327° |
| 2026-04-24 11:49 | 65.13900 | 35.56657 | 35531 ft | 431 kts | 327° |
| 2026-04-24 11:49 | 65.18908 | 35.48802 | 35531 ft | 431 kts | 327° |
| 2026-04-24 11:50 | 65.23950 | 35.41055 | 35532 ft | 431 kts | 328° |
| 2026-04-24 11:50 | 65.29010 | 35.33348 | 35533 ft | 431 kts | 328° |
| 2026-04-24 11:51 | 65.34067 | 35.25627 | 35538 ft | 431 kts | 328° |
| 2026-04-24 11:51 | 65.39119 | 35.17841 | 35540 ft | 432 kts | 327° |
| 2026-04-24 11:52 | 65.44125 | 35.10052 | 35541 ft | 432 kts | 327° |
| 2026-04-24 11:52 | 65.49163 | 35.02207 | 35541 ft | 431 kts | 327° |
| 2026-04-24 11:53 | 65.54193 | 34.94341 | 35543 ft | 431 kts | 327° |
| 2026-04-24 11:53 | 65.59220 | 34.86449 | 35542 ft | 431 kts | 327° |
| 2026-04-24 11:54 | 65.64239 | 34.78540 | 35542 ft | 431 kts | 327° |
| 2026-04-24 11:54 | 65.69247 | 34.70581 | 35544 ft | 430 kts | 327° |
| 2026-04-24 11:55 | 65.74244 | 34.62600 | 35543 ft | 430 kts | 327° |
| 2026-04-24 11:55 | 65.79237 | 34.54603 | 35536 ft | 430 kts | 327° |
| 2026-04-24 11:56 | 65.84228 | 34.46579 | 35535 ft | 430 kts | 327° |
| 2026-04-24 11:56 | 65.89213 | 34.38523 | 35536 ft | 429 kts | 327° |
| 2026-04-24 11:57 | 65.94188 | 34.30447 | 35535 ft | 429 kts | 327° |
| 2026-04-24 11:57 | 65.99149 | 34.22339 | 35535 ft | 429 kts | 327° |
| 2026-04-24 11:58 | 66.04106 | 34.14183 | 35533 ft | 429 kts | 326° |
| 2026-04-24 11:58 | 66.09026 | 34.05868 | 35544 ft | 429 kts | 326° |
| 2026-04-24 11:59 | 66.13917 | 33.97462 | 35578 ft | 428 kts | 326° |
| 2026-04-24 11:59 | 66.18810 | 33.89036 | 35596 ft | 429 kts | 326° |
| 2026-04-24 12:00 | 66.23704 | 33.80599 | 35604 ft | 429 kts | 326° |
| 2026-04-24 12:00 | 66.28561 | 33.72190 | 35607 ft | 429 kts | 326° |
| 2026-04-24 12:01 | 66.33449 | 33.63685 | 35607 ft | 428 kts | 326° |
| 2026-04-24 12:01 | 66.38574 | 33.56211 | 35604 ft | 427 kts | 339° |
| 2026-04-24 12:02 | 66.44276 | 33.52057 | 35604 ft | 427 kts | 344° |
| 2026-04-24 12:02 | 66.50002 | 33.48054 | 35603 ft | 428 kts | 343° |
| 2026-04-24 12:03 | 66.55735 | 33.44017 | 35604 ft | 428 kts | 343° |
| 2026-04-24 12:03 | 66.61466 | 33.39985 | 35604 ft | 428 kts | 343° |
| 2026-04-24 12:04 | 66.67202 | 33.35924 | 35601 ft | 428 kts | 343° |
| 2026-04-24 12:04 | 66.72929 | 33.31844 | 35597 ft | 428 kts | 343° |
| 2026-04-24 12:05 | 66.78616 | 33.27768 | 35596 ft | 427 kts | 343° |
| 2026-04-24 12:05 | 66.81480 | 33.25708 | 35404 ft | 427 kts | 343° |
| 2026-04-24 12:05 | 66.84337 | 33.23652 | 35155 ft | 426 kts | 343° |
| 2026-04-24 12:06 | 66.87188 | 33.21597 | 34906 ft | 426 kts | 343° |
| 2026-04-24 12:06 | 66.90036 | 33.19541 | 34659 ft | 425 kts | 343° |
| 2026-04-24 12:06 | 66.92881 | 33.17475 | 34407 ft | 424 kts | 343° |
| 2026-04-24 12:06 | 66.95714 | 33.15408 | 34156 ft | 422 kts | 343° |
| 2026-04-24 12:07 | 66.98530 | 33.13353 | 33906 ft | 420 kts | 343° |
| 2026-04-24 12:07 | 67.01329 | 33.11307 | 33652 ft | 417 kts | 343° |
| 2026-04-24 12:07 | 67.04113 | 33.09265 | 33403 ft | 415 kts | 343° |
| 2026-04-24 12:07 | 67.06877 | 33.07236 | 33114 ft | 411 kts | 343° |
| 2026-04-24 12:08 | 67.09610 | 33.05229 | 32607 ft | 407 kts | 343° |
| 2026-04-24 12:08 | 67.12321 | 33.03230 | 32112 ft | 403 kts | 343° |
| 2026-04-24 12:08 | 67.15006 | 33.01246 | 31601 ft | 400 kts | 343° |
| 2026-04-24 12:08 | 67.17665 | 32.99274 | 31105 ft | 396 kts | 343° |
| 2026-04-24 12:09 | 67.20301 | 32.97310 | 30613 ft | 392 kts | 343° |
| 2026-04-24 12:09 | 67.22908 | 32.95365 | 30133 ft | 388 kts | 342° |
| 2026-04-24 12:09 | 67.25489 | 32.93438 | 29656 ft | 384 kts | 342° |
| 2026-04-24 12:09 | 67.28045 | 32.91529 | 29183 ft | 380 kts | 343° |
| 2026-04-24 12:10 | 67.30571 | 32.89640 | 28721 ft | 376 kts | 343° |
| 2026-04-24 12:10 | 67.33067 | 32.87775 | 28289 ft | 371 kts | 343° |
| 2026-04-24 12:10 | 67.35535 | 32.85925 | 27838 ft | 367 kts | 343° |
| 2026-04-24 12:11 | 67.40369 | 32.82268 | 27000 ft | 357 kts | 343° |
| 2026-04-24 12:11 | 67.42738 | 32.80468 | 26579 ft | 352 kts | 343° |
| 2026-04-24 12:11 | 67.45064 | 32.78876 | 26166 ft | 348 kts | 349° |
| 2026-04-24 12:11 | 67.47460 | 32.78268 | 25752 ft | 345 kts | 357° |
| 2026-04-24 12:12 | 67.49848 | 32.78198 | 25335 ft | 341 kts | 357° |
| 2026-04-24 12:12 | 67.52206 | 32.78124 | 24924 ft | 337 kts | 357° |
| 2026-04-24 12:12 | 67.54538 | 32.78039 | 24509 ft | 334 kts | 357° |
| 2026-04-24 12:12 | 67.56848 | 32.77940 | 24074 ft | 331 kts | 358° |
| 2026-04-24 12:13 | 67.59137 | 32.77842 | 23647 ft | 327 kts | 358° |
| 2026-04-24 12:13 | 67.61403 | 32.77754 | 23218 ft | 324 kts | 358° |
| 2026-04-24 12:13 | 67.63646 | 32.77669 | 22791 ft | 321 kts | 358° |
| 2026-04-24 12:13 | 67.65872 | 32.77580 | 22366 ft | 319 kts | 358° |
| 2026-04-24 12:14 | 67.68084 | 32.77494 | 21933 ft | 317 kts | 358° |
| 2026-04-24 12:14 | 67.70288 | 32.77413 | 21508 ft | 316 kts | 358° |
| 2026-04-24 12:14 | 67.72478 | 32.77332 | 21094 ft | 314 kts | 358° |
| 2026-04-24 12:14 | 67.74652 | 32.77249 | 20684 ft | 311 kts | 358° |
| 2026-04-24 12:15 | 67.76810 | 32.77168 | 20274 ft | 310 kts | 358° |
| 2026-04-24 12:15 | 67.78959 | 32.77085 | 19867 ft | 308 kts | 358° |
| 2026-04-24 12:15 | 67.81094 | 32.77000 | 19456 ft | 306 kts | 358° |
| 2026-04-24 12:15 | 67.83216 | 32.76917 | 19054 ft | 304 kts | 358° |
| 2026-04-24 12:16 | 67.85292 | 32.76835 | 18661 ft | 302 kts | 358° |
| 2026-04-24 12:16 | 67.87387 | 32.76759 | 18263 ft | 300 kts | 358° |
| 2026-04-24 12:16 | 67.89475 | 32.76687 | 17883 ft | 299 kts | 358° |
| 2026-04-24 12:16 | 67.91546 | 32.76609 | 17493 ft | 297 kts | 358° |
| 2026-04-24 12:17 | 67.93602 | 32.76529 | 17117 ft | 295 kts | 358° |
| 2026-04-24 12:17 | 67.95651 | 32.76451 | 16742 ft | 294 kts | 358° |
| 2026-04-24 12:17 | 67.97687 | 32.76368 | 16367 ft | 292 kts | 358° |
| 2026-04-24 12:17 | 67.99716 | 32.76289 | 15978 ft | 291 kts | 358° |
| 2026-04-24 12:18 | 68.01737 | 32.76250 | 15602 ft | 290 kts | 359° |
| 2026-04-24 12:18 | 68.03753 | 32.76227 | 15232 ft | 289 kts | 359° |
| 2026-04-24 12:18 | 68.05734 | 32.76204 | 14858 ft | 288 kts | 359° |
| 2026-04-24 12:18 | 68.07737 | 32.76175 | 14492 ft | 288 kts | 359° |
| 2026-04-24 12:19 | 68.09735 | 32.76148 | 14120 ft | 287 kts | 359° |
| 2026-04-24 12:19 | 68.11728 | 32.76121 | 13744 ft | 286 kts | 359° |
| 2026-04-24 12:19 | 68.13714 | 32.76097 | 13370 ft | 285 kts | 359° |
| 2026-04-24 12:19 | 68.15696 | 32.76073 | 12997 ft | 284 kts | 359° |
| 2026-04-24 12:20 | 68.17673 | 32.76049 | 12618 ft | 284 kts | 359° |
| 2026-04-24 12:20 | 68.19644 | 32.76019 | 12232 ft | 283 kts | 359° |
| 2026-04-24 12:20 | 68.21607 | 32.75988 | 11854 ft | 282 kts | 359° |
| 2026-04-24 12:20 | 68.23564 | 32.75960 | 11477 ft | 281 kts | 359° |
| 2026-04-24 12:21 | 68.25514 | 32.75926 | 11080 ft | 279 kts | 359° |
| 2026-04-24 12:21 | 68.27450 | 32.75895 | 10690 ft | 277 kts | 359° |
| 2026-04-24 12:21 | 68.29369 | 32.75866 | 10296 ft | 275 kts | 359° |
| 2026-04-24 12:21 | 68.31271 | 32.75854 | 9900 ft | 272 kts | 359° |
| 2026-04-24 12:22 | 68.33165 | 32.75836 | 9550 ft | 271 kts | 359° |
| 2026-04-24 12:22 | 68.35005 | 32.75805 | 9423 ft | 259 kts | 358° |
| 2026-04-24 12:22 | 68.36753 | 32.75769 | 9270 ft | 245 kts | 359° |
| 2026-04-24 12:22 | 68.38475 | 32.75723 | 8914 ft | 247 kts | 359° |
| 2026-04-24 12:23 | 68.40149 | 32.75696 | 8637 ft | 243 kts | 359° |
| 2026-04-24 12:23 | 68.41833 | 32.75677 | 8218 ft | 242 kts | 359° |
| 2026-04-24 12:23 | 68.43503 | 32.75707 | 7713 ft | 237 kts | 360° |
| 2026-04-24 12:23 | 68.45152 | 32.75858 | 7115 ft | 237 kts | 0° |
| 2026-04-24 12:24 | 68.46793 | 32.76062 | 6698 ft | 235 kts | 0° |
| 2026-04-24 12:24 | 68.48424 | 32.76254 | 6313 ft | 235 kts | 360° |
| 2026-04-24 12:24 | 68.50051 | 32.76443 | 5928 ft | 234 kts | 359° |
| 2026-04-24 12:24 | 68.51674 | 32.76623 | 5542 ft | 234 kts | 360° |
| 2026-04-24 12:25 | 68.53285 | 32.76927 | 5151 ft | 232 kts | 2° |
| 2026-04-24 12:25 | 68.54888 | 32.77343 | 4867 ft | 229 kts | 2° |
| 2026-04-24 12:25 | 68.56459 | 32.77818 | 4741 ft | 222 kts | 7° |
| 2026-04-24 12:25 | 68.57899 | 32.79183 | 4530 ft | 221 kts | 23° |
| 2026-04-24 12:26 | 68.59137 | 32.81745 | 4210 ft | 230 kts | 40° |
| 2026-04-24 12:26 | 68.60098 | 32.85316 | 3874 ft | 234 kts | 49° |
| 2026-04-24 12:26 | 68.60994 | 32.89013 | 3539 ft | 231 kts | 50° |
| 2026-04-24 12:26 | 68.61855 | 32.92589 | 3447 ft | 220 kts | 50° |
| 2026-04-24 12:27 | 68.62688 | 32.96039 | 3383 ft | 210 kts | 47° |
| 2026-04-24 12:27 | 68.63717 | 32.98461 | 3289 ft | 186 kts | 17° |
| 2026-04-24 12:27 | 68.64955 | 32.98830 | 3082 ft | 178 kts | 346° |
| 2026-04-24 12:27 | 68.66045 | 32.97399 | 2889 ft | 173 kts | 327° |
| 2026-04-24 12:28 | 68.67031 | 32.95600 | 2682 ft | 168 kts | 327° |
| 2026-04-24 12:28 | 68.67959 | 32.93907 | 2445 ft | 156 kts | 327° |
| 2026-04-24 12:28 | 68.68827 | 32.92316 | 2254 ft | 143 kts | 326° |
| 2026-04-24 12:28 | 68.69617 | 32.90874 | 2096 ft | 131 kts | 326° |
| 2026-04-24 12:29 | 68.70370 | 32.89485 | 1903 ft | 128 kts | 326° |
| 2026-04-24 12:29 | 68.71111 | 32.88137 | 1733 ft | 127 kts | 326° |
| 2026-04-24 12:29 | 68.71843 | 32.86793 | 1567 ft | 126 kts | 326° |
| 2026-04-24 12:29 | 68.72571 | 32.85457 | 1399 ft | 125 kts | 326° |
| 2026-04-24 12:30 | 68.73297 | 32.84125 | 1256 ft | 126 kts | 326° |
| 2026-04-24 12:30 | 68.74023 | 32.82788 | 1071 ft | 125 kts | 326° |
| 2026-04-24 12:30 | 68.74743 | 32.81461 | 914 ft | 123 kts | 326° |
| 2026-04-24 12:30 | 68.75466 | 32.80137 | 735 ft | 125 kts | 326° |
| 2026-04-24 12:31 | 68.76187 | 32.78814 | 558 ft | 124 kts | 327° |
| 2026-04-24 12:31 | 68.76901 | 32.77497 | 385 ft | 123 kts | 327° |
| 2026-04-24 12:31 | 68.77602 | 32.76196 | 253 ft | 113 kts | 326° |
| 2026-04-24 12:31 | 68.78013 | 32.75435 | 252 ft | 34 kts | 327° |
| 2026-04-24 12:32 | 68.78178 | 32.75129 | 253 ft | 24 kts | 326° |
| 2026-04-24 12:32 | 68.78292 | 32.75003 | 256 ft | 13 kts | 19° |
| 2026-04-24 12:32 | 68.78348 | 32.75193 | 254 ft | 13 kts | 55° |
| 2026-04-24 12:32 | 68.78398 | 32.75399 | 254 ft | 16 kts | 57° |
| 2026-04-24 12:33 | 68.78388 | 32.75571 | 254 ft | 8 kts | 146° |
| 2026-04-24 12:33 | 68.78359 | 32.75706 | 254 ft | 12 kts | 46° |
| 2026-04-24 12:33 | 68.78395 | 32.75683 | 254 ft | 2 kts | 329° |
| 2026-04-24 12:33 | 68.78403 | 32.75672 | 254 ft | 0 kts | 324° |